createdAt,value
2023-02-17T00:03:01.091Z,100.00
2023-02-17T00:06:08.523Z,100.00
2023-02-17T00:09:16.745Z,100.00
2023-02-17T00:12:24.320Z,100.00
2023-02-17T00:15:30.760Z,100.00
2023-02-17T00:18:37.011Z,100.00
2023-02-17T00:21:43.203Z,100.00
2023-02-17T00:24:49.533Z,100.00
2023-02-17T00:27:57.065Z,100.00
2023-02-17T00:31:07.621Z,100.00
2023-02-17T00:34:14.617Z,100.00
2023-02-17T00:37:21.089Z,100.00
2023-02-17T00:40:27.404Z,100.00
2023-02-17T00:43:35.376Z,100.00
2023-02-17T00:46:41.381Z,100.00
2023-02-17T00:49:47.632Z,100.00
2023-02-17T00:52:53.728Z,100.00
2023-02-17T00:56:00.216Z,100.00
2023-02-17T00:59:07.625Z,100.00
2023-02-17T01:02:13.549Z,100.00
2023-02-17T01:05:19.769Z,100.00
2023-02-17T01:08:26.783Z,100.00
2023-02-17T01:11:35.068Z,100.00
2023-02-17T01:14:42.843Z,100.00
2023-02-17T01:17:48.858Z,100.00
2023-02-17T01:20:55.291Z,100.00
2023-02-17T01:24:03.291Z,100.00
2023-02-17T01:27:10.080Z,100.00
2023-02-17T01:30:17.964Z,100.00
2023-02-17T01:33:24.079Z,100.00
2023-02-17T01:36:30.730Z,100.00
2023-02-17T01:39:36.853Z,100.00
2023-02-17T01:42:43.130Z,100.00
2023-02-17T01:45:53.900Z,100.00
2023-02-17T01:49:00.913Z,100.00
2023-02-17T01:52:12.378Z,100.00
2023-02-17T01:55:22.324Z,100.00
2023-02-17T01:58:30.754Z,100.00
2023-02-17T02:01:38.864Z,100.00
2023-02-17T02:04:48.079Z,100.00
2023-02-17T02:07:54.729Z,100.00
2023-02-17T02:11:01.062Z,100.00
2023-02-17T02:14:10.192Z,100.00
2023-02-17T02:17:29.906Z,100.00
2023-02-17T02:20:59.273Z,100.00
2023-02-17T02:24:17.502Z,100.00
2023-02-17T02:28:03.455Z,100.00
2023-02-17T02:31:30.030Z,100.00
2023-02-17T02:34:43.460Z,100.00
2023-02-17T02:37:54.748Z,100.00
2023-02-17T02:41:05.676Z,100.00
2023-02-17T02:44:15.171Z,100.00
2023-02-17T02:47:44.714Z,100.00
2023-02-17T02:51:04.970Z,100.00
2023-02-17T02:54:29.233Z,100.00
2023-02-17T02:57:45.743Z,100.00
2023-02-17T03:00:58.809Z,100.00
2023-02-17T03:04:12.844Z,100.00
2023-02-17T03:07:24.419Z,100.00
2023-02-17T03:10:30.766Z,100.00
2023-02-17T03:13:43.299Z,100.00
2023-02-17T03:16:50.609Z,100.00
2023-02-17T03:19:56.670Z,100.00
2023-02-17T03:23:05.244Z,100.00
2023-02-17T03:26:11.438Z,100.00
2023-02-17T03:29:17.503Z,100.00
2023-02-17T03:32:23.881Z,100.00
2023-02-17T03:35:30.097Z,100.00
2023-02-17T03:38:37.499Z,100.00
2023-02-17T03:41:43.824Z,100.00
2023-02-17T03:44:50.263Z,100.00
2023-02-17T03:47:56.393Z,100.00
2023-02-17T03:51:12.011Z,100.00
2023-02-17T03:54:19.473Z,100.00
2023-02-17T03:57:25.770Z,100.00
2023-02-17T04:00:32.127Z,100.00
2023-02-17T04:03:38.702Z,100.00
2023-02-17T04:06:44.725Z,100.00
2023-02-17T04:09:52.690Z,100.00
2023-02-17T04:12:58.735Z,100.00
2023-02-17T04:16:06.177Z,100.00
2023-02-17T04:19:12.618Z,100.00
2023-02-17T04:22:18.511Z,100.00
2023-02-17T04:25:26.255Z,100.00
2023-02-17T04:28:32.513Z,100.00
2023-02-17T04:31:39.067Z,100.00
2023-02-17T04:34:45.146Z,100.00
2023-02-17T04:37:51.666Z,100.00
2023-02-17T04:41:00.513Z,100.00
2023-02-17T04:44:06.802Z,100.00
2023-02-17T04:47:13.286Z,100.00
2023-02-17T04:50:21.036Z,100.00
2023-02-17T04:53:27.004Z,100.00
2023-02-17T04:56:34.616Z,100.00
2023-02-17T04:59:40.825Z,100.00
2023-02-17T05:02:47.387Z,100.00
2023-02-17T05:05:53.487Z,100.00
2023-02-17T05:08:59.643Z,100.00
2023-02-17T05:12:07.766Z,100.00
2023-02-17T05:15:14.471Z,100.00
2023-02-17T05:18:20.792Z,100.00
2023-02-17T05:21:26.958Z,100.00
2023-02-17T05:24:33.292Z,100.00
2023-02-17T05:27:40.852Z,100.00
2023-02-17T05:30:49.747Z,100.00
2023-02-17T05:33:56.282Z,100.00
2023-02-17T05:37:02.791Z,100.00
2023-02-17T05:40:09.982Z,100.00
2023-02-17T05:43:17.731Z,100.00
2023-02-17T05:46:24.354Z,100.00
2023-02-17T05:49:30.515Z,100.00
2023-02-17T05:52:36.913Z,100.00
2023-02-17T05:55:42.937Z,100.00
2023-02-17T05:58:50.374Z,100.00
2023-02-17T06:01:56.562Z,100.00
2023-02-17T06:05:02.811Z,100.00
2023-02-17T06:08:09.345Z,100.00
2023-02-17T06:11:15.260Z,100.00
2023-02-17T06:14:22.670Z,100.00
2023-02-17T06:17:29.158Z,100.00
2023-02-17T06:20:35.531Z,100.00
2023-02-17T06:23:41.870Z,100.00
2023-02-17T06:26:48.380Z,100.00
2023-02-17T06:29:56.555Z,100.00
2023-02-17T06:33:02.980Z,100.00
2023-02-17T06:36:09.970Z,100.00
2023-02-17T06:39:16.494Z,100.00
2023-02-17T06:42:22.906Z,100.00
2023-02-17T06:45:30.678Z,100.00
2023-02-17T06:48:37.048Z,100.00
2023-02-17T06:51:43.053Z,100.00
2023-02-17T06:54:49.483Z,100.00
2023-02-17T06:57:55.516Z,100.00
2023-02-17T07:01:02.933Z,100.00
2023-02-17T07:04:09.354Z,100.00
2023-02-17T07:07:15.674Z,100.00
2023-02-17T07:10:21.925Z,100.00
2023-02-17T07:13:27.900Z,100.00
2023-02-17T07:16:35.320Z,100.00
2023-02-17T07:19:41.792Z,98.48
2023-02-17T07:22:48.303Z,100.00
2023-02-17T07:25:54.415Z,100.00
2023-02-17T07:29:01.947Z,99.49
2023-02-17T07:32:09.591Z,96.62
2023-02-17T07:35:15.872Z,94.74
2023-02-17T07:38:22.307Z,91.89
2023-02-17T07:41:30.788Z,90.23
2023-02-17T07:44:37.009Z,89.52
2023-02-17T07:47:45.102Z,87.94
2023-02-17T07:50:51.439Z,88.52
2023-02-17T07:53:57.658Z,88.59
2023-02-17T07:57:04.152Z,85.92
2023-02-17T08:00:11.380Z,87.14
2023-02-17T08:03:19.248Z,88.41
2023-02-17T08:06:27.049Z,87.55
2023-02-17T08:09:51.064Z,85.30
2023-02-17T08:13:14.979Z,85.91
2023-02-17T08:16:21.354Z,84.95
2023-02-17T08:19:42.790Z,85.12
2023-02-17T08:22:53.057Z,83.38
2023-02-17T08:25:59.825Z,79.47
2023-02-17T08:29:06.209Z,76.72
2023-02-17T08:32:13.558Z,75.23
2023-02-17T08:35:22.671Z,72.66
2023-02-17T08:38:28.923Z,70.30
2023-02-17T08:41:37.342Z,68.42
2023-02-17T08:44:43.589Z,68.87
2023-02-17T08:47:51.159Z,68.40
2023-02-17T08:50:58.971Z,66.39
2023-02-17T08:54:07.103Z,63.43
2023-02-17T08:57:13.546Z,61.57
2023-02-17T09:00:20.529Z,57.93
2023-02-17T09:03:27.137Z,54.62
2023-02-17T09:06:36.549Z,53.62
2023-02-17T09:09:43.498Z,52.47
2023-02-17T09:12:49.775Z,49.77
2023-02-17T09:15:56.029Z,51.64
2023-02-17T09:19:02.385Z,52.82
2023-02-17T09:22:17.532Z,52.04
2023-02-17T09:25:32.874Z,50.43
2023-02-17T09:28:39.660Z,49.37
2023-02-17T09:31:46.595Z,48.17
2023-02-17T09:34:53.202Z,47.22
2023-02-17T09:38:01.138Z,48.41
2023-02-17T09:41:17.902Z,47.55
2023-02-17T09:44:27.074Z,47.61
2023-02-17T09:47:40.148Z,39.54
2023-02-17T09:50:54.962Z,37.75
2023-02-17T09:54:09.738Z,37.30
2023-02-17T09:57:20.947Z,37.05
2023-02-17T10:00:31.836Z,35.93
2023-02-17T10:03:42.041Z,35.83
2023-02-17T10:06:53.715Z,35.88
2023-02-17T10:10:08.386Z,36.34
2023-02-17T10:13:19.348Z,37.48
2023-02-17T10:16:31.097Z,36.66
2023-02-17T10:19:46.455Z,36.49
2023-02-17T10:22:57.141Z,36.69
2023-02-17T10:26:20.871Z,36.42
2023-02-17T10:29:40.402Z,36.25
2023-02-17T10:32:57.951Z,36.24
2023-02-17T10:36:13.647Z,36.51
2023-02-17T10:39:45.040Z,34.87
2023-02-17T10:42:56.183Z,34.40
2023-02-17T10:46:06.654Z,34.11
2023-02-17T10:49:23.534Z,33.32
2023-02-17T10:52:37.972Z,32.75
2023-02-17T10:55:55.744Z,32.99
2023-02-17T10:59:07.605Z,33.34
2023-02-17T11:02:20.579Z,32.54
2023-02-17T11:05:30.383Z,32.48
2023-02-17T11:08:40.834Z,32.24
2023-02-17T11:11:56.245Z,31.19
2023-02-17T11:15:15.780Z,30.40
2023-02-17T11:18:27.387Z,30.65
2023-02-17T11:21:34.427Z,30.23
2023-02-17T11:24:40.813Z,29.37
2023-02-17T11:27:52.415Z,29.23
2023-02-17T11:31:02.851Z,29.81
2023-02-17T11:34:14.669Z,29.26
2023-02-17T11:37:24.605Z,28.09
2023-02-17T11:40:33.267Z,27.06
2023-02-17T11:43:40.493Z,26.75
2023-02-17T11:46:53.479Z,26.82
2023-02-17T11:50:38.952Z,25.94
2023-02-17T11:54:00.316Z,25.76
2023-02-17T11:57:23.161Z,26.23
2023-02-17T12:00:39.505Z,26.27
2023-02-17T12:04:21.939Z,26.70
2023-02-17T12:07:45.644Z,26.58
2023-02-17T12:11:03.044Z,25.54
2023-02-17T12:14:31.141Z,25.32
2023-02-17T12:17:47.833Z,25.38
2023-02-17T12:21:04.459Z,25.74
2023-02-17T12:24:28.885Z,25.49
2023-02-17T12:27:55.009Z,25.67
2023-02-17T12:31:05.240Z,25.78
2023-02-17T12:34:19.819Z,26.22
2023-02-17T12:37:32.305Z,25.78
2023-02-17T12:40:42.768Z,25.13
2023-02-17T12:43:52.035Z,25.34
2023-02-17T12:47:03.622Z,24.96
2023-02-17T12:50:21.164Z,24.89
2023-02-17T12:53:42.026Z,25.31
2023-02-17T12:57:00.526Z,25.16
2023-02-17T13:00:17.889Z,25.31
2023-02-17T13:03:24.203Z,25.67
2023-02-17T13:06:37.914Z,25.29
2023-02-17T13:09:47.536Z,24.88
2023-02-17T13:13:00.726Z,25.26
2023-02-17T13:16:11.316Z,25.11
2023-02-17T13:19:29.440Z,25.76
2023-02-17T13:22:36.000Z,25.66
2023-02-17T13:25:43.636Z,25.94
2023-02-17T13:28:53.417Z,26.15
2023-02-17T13:32:03.222Z,26.21
2023-02-17T13:35:31.814Z,26.83
2023-02-17T13:38:38.357Z,27.14
2023-02-17T13:41:50.065Z,27.22
2023-02-17T13:44:56.695Z,27.27
2023-02-17T13:48:16.657Z,27.70
2023-02-17T13:51:28.152Z,27.82
2023-02-17T13:54:34.753Z,28.01
2023-02-17T13:57:42.195Z,28.26
2023-02-17T14:00:48.670Z,28.28
2023-02-17T14:03:57.121Z,29.12
2023-02-17T14:07:06.394Z,29.78
2023-02-17T14:10:19.897Z,29.93
2023-02-17T14:13:28.044Z,29.88
2023-02-17T14:16:36.744Z,30.06
2023-02-17T14:19:44.508Z,30.44
2023-02-17T14:23:04.186Z,30.66
2023-02-17T14:26:13.507Z,31.62
2023-02-17T14:29:21.146Z,32.58
2023-02-17T14:32:29.398Z,32.94
2023-02-17T14:35:39.567Z,33.72
2023-02-17T14:38:45.724Z,33.70
2023-02-17T14:41:52.206Z,33.86
2023-02-17T14:45:00.241Z,34.52
2023-02-17T14:48:06.992Z,34.30
2023-02-17T14:51:14.614Z,33.83
2023-02-17T14:54:21.250Z,33.72
2023-02-17T14:57:29.094Z,33.94
2023-02-17T15:00:36.862Z,34.29
2023-02-17T15:03:43.392Z,34.13
2023-02-17T15:06:51.875Z,34.66
2023-02-17T15:09:58.424Z,34.71
2023-02-17T15:13:04.764Z,34.63
2023-02-17T15:16:13.267Z,34.58
2023-02-17T15:19:19.937Z,35.38
2023-02-17T15:22:26.441Z,35.88
2023-02-17T15:25:34.996Z,36.44
2023-02-17T15:28:41.406Z,36.89
2023-02-17T15:31:50.273Z,36.61
2023-02-17T15:35:01.627Z,36.58
2023-02-17T15:38:11.483Z,36.65
2023-02-17T15:41:20.274Z,36.82
2023-02-17T15:44:32.475Z,36.75
2023-02-17T15:47:40.431Z,39.24
2023-02-17T15:50:46.801Z,40.19
2023-02-17T15:53:53.474Z,41.32
2023-02-17T15:57:00.606Z,42.15
2023-02-17T16:00:17.181Z,42.41
2023-02-17T16:03:24.760Z,42.60
2023-02-17T16:06:31.465Z,43.00
2023-02-17T16:09:37.602Z,42.38
2023-02-17T16:12:45.227Z,42.70
2023-02-17T16:15:51.501Z,43.48
2023-02-17T16:18:59.515Z,43.66
2023-02-17T16:22:05.686Z,44.85
2023-02-17T16:25:12.124Z,45.64
2023-02-17T16:28:21.384Z,45.04
2023-02-17T16:31:28.309Z,45.61
2023-02-17T16:34:35.895Z,46.80
2023-02-17T16:37:42.736Z,46.59
2023-02-17T16:40:50.937Z,48.12
2023-02-17T16:43:57.650Z,48.19
2023-02-17T16:47:04.318Z,49.07
2023-02-17T16:50:23.409Z,49.62
2023-02-17T16:53:29.946Z,50.33
2023-02-17T16:56:39.202Z,50.02
2023-02-17T16:59:45.710Z,50.54
2023-02-17T17:02:52.381Z,50.89
2023-02-17T17:05:59.749Z,52.52
2023-02-17T17:09:07.121Z,52.32
2023-02-17T17:12:13.353Z,53.67
2023-02-17T17:15:20.376Z,54.04
2023-02-17T17:18:27.095Z,54.35
2023-02-17T17:21:35.538Z,54.32
2023-02-17T17:24:41.947Z,53.83
2023-02-17T17:27:47.890Z,54.24
2023-02-17T17:30:53.891Z,55.07
2023-02-17T17:34:00.124Z,56.22
2023-02-17T17:37:07.610Z,55.93
2023-02-17T17:40:18.848Z,57.09
2023-02-17T17:43:25.105Z,56.00
2023-02-17T17:46:33.101Z,56.92
2023-02-17T17:49:39.233Z,57.09
2023-02-17T17:52:47.346Z,57.63
2023-02-17T17:55:53.367Z,58.06
2023-02-17T17:59:01.503Z,60.57
2023-02-17T18:02:07.548Z,60.31
2023-02-17T18:05:13.714Z,60.44
2023-02-17T18:08:21.835Z,61.21
2023-02-17T18:11:28.438Z,60.36
2023-02-17T18:14:38.251Z,60.53
2023-02-17T18:17:44.849Z,61.26
2023-02-17T18:20:51.061Z,62.48
2023-02-17T18:23:58.583Z,64.12
2023-02-17T18:27:05.396Z,65.29
2023-02-17T18:30:13.605Z,66.42
2023-02-17T18:33:20.450Z,68.50
2023-02-17T18:36:28.398Z,70.82
2023-02-17T18:39:36.449Z,66.79
2023-02-17T18:42:45.696Z,65.66
2023-02-17T18:45:53.075Z,65.65
2023-02-17T18:48:59.187Z,65.79
2023-02-17T18:52:07.313Z,64.66
2023-02-17T18:55:15.801Z,67.24
2023-02-17T18:58:21.949Z,66.55
2023-02-17T19:01:30.927Z,65.93
2023-02-17T19:04:37.717Z,67.70
2023-02-17T19:07:44.345Z,67.71
2023-02-17T19:10:53.679Z,68.97
2023-02-17T19:14:01.746Z,69.63
2023-02-17T19:17:08.140Z,71.30
2023-02-17T19:20:15.143Z,73.02
2023-02-17T19:23:21.429Z,75.13
2023-02-17T19:26:29.425Z,76.58
2023-02-17T19:29:36.504Z,78.04
2023-02-17T19:32:43.121Z,79.20
2023-02-17T19:35:50.538Z,77.50
2023-02-17T19:38:58.497Z,76.23
2023-02-17T19:42:06.745Z,76.10
2023-02-17T19:45:13.107Z,77.32
2023-02-17T19:48:24.221Z,76.94
2023-02-17T19:51:30.759Z,76.51
2023-02-17T19:54:37.293Z,78.12
2023-02-17T19:57:45.657Z,77.70
2023-02-17T20:00:51.956Z,77.72
2023-02-17T20:03:59.569Z,77.86
2023-02-17T20:07:05.995Z,78.98
2023-02-17T20:10:13.724Z,78.61
2023-02-17T20:13:21.452Z,78.63
2023-02-17T20:16:29.633Z,79.86
2023-02-17T20:19:37.891Z,79.12
2023-02-17T20:22:44.406Z,78.58
2023-02-17T20:25:50.597Z,80.98
2023-02-17T20:28:59.420Z,80.08
2023-02-17T20:32:06.192Z,80.73
2023-02-17T20:35:14.127Z,81.50
2023-02-17T20:38:20.597Z,83.56
2023-02-17T20:41:27.526Z,83.46
2023-02-17T20:44:35.465Z,83.91
2023-02-17T20:47:41.824Z,83.83
2023-02-17T20:50:48.988Z,84.43
2023-02-17T20:53:55.237Z,83.83
2023-02-17T20:57:01.798Z,86.26
2023-02-17T21:00:15.382Z,86.54
2023-02-17T21:03:21.750Z,89.83
2023-02-17T21:06:30.940Z,90.98
2023-02-17T21:09:37.067Z,92.98
2023-02-17T21:12:43.307Z,92.91
2023-02-17T21:15:51.429Z,92.45
2023-02-17T21:18:58.385Z,91.57
2023-02-17T21:22:04.979Z,92.68
2023-02-17T21:25:11.768Z,93.53
2023-02-17T21:28:18.023Z,92.87
2023-02-17T21:31:27.575Z,94.30
2023-02-17T21:34:37.822Z,91.61
2023-02-17T21:37:44.309Z,90.57
2023-02-17T21:40:52.005Z,90.86
2023-02-17T21:44:16.309Z,90.26
2023-02-17T21:47:24.148Z,89.56
2023-02-17T21:50:30.658Z,90.94
2023-02-17T21:53:37.377Z,92.97
2023-02-17T21:56:43.989Z,93.12
2023-02-17T21:59:50.101Z,90.69
2023-02-17T22:02:57.759Z,91.42
2023-02-17T22:06:14.522Z,93.10
2023-02-17T22:09:20.641Z,95.02
2023-02-17T22:12:26.831Z,93.86
2023-02-17T22:15:33.498Z,96.68
2023-02-17T22:18:41.477Z,94.83
2023-02-17T22:21:47.948Z,92.47
2023-02-17T22:24:54.404Z,92.73
2023-02-17T22:28:00.496Z,93.19
2023-02-17T22:31:07.428Z,92.30
2023-02-17T22:34:16.391Z,93.34
2023-02-17T22:37:22.635Z,93.09
2023-02-17T22:40:29.256Z,92.33
2023-02-17T22:43:37.130Z,93.39
2023-02-17T22:46:43.579Z,94.04
2023-02-17T22:49:51.257Z,95.38
2023-02-17T22:52:57.760Z,93.46
2023-02-17T22:56:05.615Z,96.89
2023-02-17T22:59:12.078Z,96.36
2023-02-17T23:02:18.644Z,96.98
2023-02-17T23:05:26.691Z,95.03
2023-02-17T23:08:33.766Z,94.95
2023-02-17T23:11:55.110Z,95.76
2023-02-17T23:15:02.325Z,97.29
2023-02-17T23:18:09.780Z,97.01
2023-02-17T23:21:17.530Z,99.64
2023-02-17T23:24:24.924Z,99.40
2023-02-17T23:27:31.536Z,100.00
2023-02-17T23:30:38.424Z,100.00
2023-02-17T23:33:44.834Z,100.00
2023-02-17T23:36:52.499Z,100.00
2023-02-17T23:39:58.650Z,100.00
2023-02-17T23:43:05.347Z,100.00
2023-02-17T23:46:11.552Z,100.00
2023-02-17T23:49:19.134Z,99.35
2023-02-17T23:52:26.709Z,99.72
2023-02-17T23:55:32.937Z,100.00
2023-02-17T23:58:39.350Z,100.00
